Time;durP1;ratioP1;P1;durP2;ratioP2;P2;SDS_P1;SDS_P2;PMS_P1;PMS_P2;Temp;Humidity;BMP_temperature;BMP_pressure;BME280_temperature;BME280_humidity;BME280_pressure;Samples;Min_cycle;Max_cycle;Signal;HPM_P1;HPM_P2
2023/06/24 00:01:03;;;;;;;;;2.00;2.00;;;;;;;;4802183;29;28852;-96
2023/06/24 00:03:31;;;;;;;;;5.67;5.67;;;;;;;;4801868;29;28914;-96
2023/06/24 00:06:03;;;;;;;;;3.33;3.33;;;;;;;;4817377;29;29382;-96
2023/06/24 00:08:34;;;;;;;;;3.00;3.00;;;;;;;;4815404;29;28869;-96
2023/06/24 00:11:06;;;;;;;;;5.00;5.00;;;;;;;;4800822;29;28794;-96
2023/06/24 00:13:31;;;;;;;;;4.67;4.67;;;;;;;;4800421;29;28893;-96
2023/06/24 00:15:56;;;;;;;;;4.67;4.67;;;;;;;;4801890;29;30006;-96
2023/06/24 00:18:24;;;;;;;;;4.00;4.00;;;;;;;;4801690;29;28734;-96
2023/06/24 00:20:49;;;;;;;;;3.00;3.00;;;;;;;;4815261;29;28660;-95
2023/06/24 00:23:17;;;;;;;;;4.00;4.00;;;;;;;;4817143;29;28653;-96
2023/06/24 00:25:42;;;;;;;;;2.33;2.33;;;;;;;;4807147;29;29157;-96
2023/06/24 00:28:08;;;;;;;;;4.00;4.00;;;;;;;;4815851;29;28647;-95
2023/06/24 00:30:35;;;;;;;;;4.00;4.00;;;;;;;;4802078;29;28548;-96
2023/06/24 00:33:00;;;;;;;;;5.33;5.33;;;;;;;;4816615;29;28839;-96
2023/06/24 00:35:26;;;;;;;;;3.00;3.00;;;;;;;;4816260;29;28529;-96
2023/06/24 00:37:57;;;;;;;;;4.33;4.33;;;;;;;;4814937;29;28714;-95
2023/06/24 00:40:23;;;;;;;;;4.33;4.33;;;;;;;;4797630;29;28798;-96
2023/06/24 00:42:48;;;;;;;;;4.00;4.00;;;;;;;;4801242;29;28572;-96
2023/06/24 00:45:17;;;;;;;;;4.33;4.33;;;;;;;;4803315;29;29804;-96
2023/06/24 00:47:42;;;;;;;;;3.00;3.00;;;;;;;;4815537;29;28549;-96
2023/06/24 00:50:08;;;;;;;;;4.00;4.00;;;;;;;;4817417;29;28355;-96
2023/06/24 00:52:36;;;;;;;;;4.00;4.00;;;;;;;;4817125;29;29207;-96
2023/06/24 00:55:02;;;;;;;;;4.67;4.67;;;;;;;;4819287;29;29448;-96
2023/06/24 00:57:28;;;;;;;;;4.33;4.33;;;;;;;;4815851;29;28975;-96
2023/06/24 00:59:56;;;;;;;;;4.00;4.00;;;;;;;;4816118;29;28737;-96
2023/06/24 01:02:22;;;;;;;;;3.33;3.33;;;;;;;;4818437;29;28670;-96
2023/06/24 01:04:48;;;;;;;;;5.67;5.67;;;;;;;;4814794;29;28802;-96
2023/06/24 01:07:14;;;;;;;;;3.00;3.00;;;;;;;;4816774;29;29790;-96
2023/06/24 01:09:39;;;;;;;;;3.67;3.67;;;;;;;;4797899;29;28748;-96
2023/06/24 01:12:06;;;;;;;;;4.00;4.00;;;;;;;;4815221;29;28772;-96
2023/06/24 01:14:34;;;;;;;;;2.33;2.33;;;;;;;;4800366;29;30365;-96
2023/06/24 01:17:06;;;;;;;;;3.67;3.67;;;;;;;;4814058;29;28959;-96
2023/06/24 01:19:44;;;;;;;;;4.00;4.00;;;;;;;;4817125;29;28883;-96
2023/06/24 01:22:28;;;;;;;;;4.33;4.33;;;;;;;;4802730;29;29348;-96
2023/06/24 01:25:06;;;;;;;;;5.67;5.67;;;;;;;;4816958;29;29292;-96
2023/06/24 01:27:44;;;;;;;;;5.00;5.00;;;;;;;;4813332;29;28422;-96
2023/06/24 01:30:28;;;;;;;;;5.33;5.33;;;;;;;;4796952;29;28490;-96
2023/06/24 01:32:56;;;;;;;;;4.00;4.00;;;;;;;;4796391;29;28507;-96
2023/06/24 01:35:26;;;;;;;;;5.67;5.67;;;;;;;;4816387;29;29628;-96
2023/06/24 01:37:52;;;;;;;;;7.33;6.00;;;;;;;;4797857;29;29720;-96
2023/06/24 01:40:37;;;;;;;;;5.33;5.33;;;;;;;;4799208;29;28511;-96
2023/06/24 01:43:03;;;;;;;;;6.00;6.00;;;;;;;;4816804;29;28512;-96
2023/06/24 01:45:32;;;;;;;;;9.67;9.67;;;;;;;;4815971;29;29480;-96
2023/06/24 01:48:02;;;;;;;;;3.00;3.00;;;;;;;;4798372;29;30112;-96
2023/06/24 01:50:30;;;;;;;;;8.00;8.00;;;;;;;;4818043;29;28579;-96
2023/06/24 01:52:56;;;;;;;;;7.00;7.00;;;;;;;;4819018;29;28718;-96
2023/06/24 01:55:23;;;;;;;;;7.67;7.67;;;;;;;;4817648;29;29259;-96
2023/06/24 01:57:50;;;;;;;;;5.33;5.33;;;;;;;;4808408;29;28648;-96
2023/06/24 02:00:16;;;;;;;;;5.00;5.00;;;;;;;;4799568;29;28678;-96
2023/06/24 02:02:42;;;;;;;;;7.33;7.33;;;;;;;;4806743;29;28544;-95
2023/06/24 02:05:09;;;;;;;;;4.00;4.00;;;;;;;;4818652;29;28720;-96
2023/06/24 02:07:34;;;;;;;;;7.33;7.33;;;;;;;;4822876;29;28401;-96
2023/06/24 02:10:00;;;;;;;;;7.00;7.00;;;;;;;;4817267;29;28394;-96
2023/06/24 02:12:27;;;;;;;;;3.33;3.33;;;;;;;;4814819;29;28747;-95
2023/06/24 02:14:56;;;;;;;;;6.33;5.67;;;;;;;;4814456;29;28581;-96
2023/06/24 02:17:24;;;;;;;;;5.33;5.33;;;;;;;;4816291;29;28591;-96
2023/06/24 02:19:50;;;;;;;;;6.00;6.00;;;;;;;;4798441;29;28564;-96
2023/06/24 02:22:16;;;;;;;;;5.67;5.67;;;;;;;;4814066;29;28300;-95
2023/06/24 02:24:42;;;;;;;;;6.33;6.33;;;;;;;;4797606;29;29790;-96
2023/06/24 02:27:08;;;;;;;;;5.33;5.33;;;;;;;;4797929;29;30128;-95
2023/06/24 02:29:35;;;;;;;;;8.00;8.00;;;;;;;;4797692;29;28500;-96
2023/06/24 02:32:03;;;;;;;;;7.33;7.33;;;;;;;;4800766;29;28834;-96
2023/06/24 02:34:28;;;;;;;;;5.67;5.67;;;;;;;;4816661;29;29272;-96
2023/06/24 02:36:53;;;;;;;;;6.50;6.50;;;;;;;;4813472;29;28316;-96
2023/06/24 02:39:19;;;;;;;;;7.67;6.00;;;;;;;;4815933;29;28469;-96
2023/06/24 02:41:47;;;;;;;;;6.67;6.67;;;;;;;;4816529;29;28501;-96
2023/06/24 02:44:12;;;;;;;;;8.33;8.33;;;;;;;;4821157;29;29361;-96
2023/06/24 02:46:39;;;;;;;;;7.00;7.00;;;;;;;;4817367;29;28599;-96
2023/06/24 02:49:05;;;;;;;;;8.67;8.67;;;;;;;;4806562;29;28597;-96
2023/06/24 02:51:30;;;;;;;;;7.33;7.33;;;;;;;;4821869;29;28506;-96
2023/06/24 02:53:57;;;;;;;;;10.33;8.67;;;;;;;;4801742;29;30827;-96
2023/06/24 02:56:24;;;;;;;;;11.00;11.00;;;;;;;;4804250;29;28593;-95
2023/06/24 02:58:53;;;;;;;;;7.00;7.00;;;;;;;;4803361;29;28572;-96
2023/06/24 03:01:24;;;;;;;;;8.67;8.67;;;;;;;;4818025;29;28427;-96
2023/06/24 03:03:52;;;;;;;;;12.00;12.00;;;;;;;;4803898;29;28639;-96
2023/06/24 03:06:18;;;;;;;;;13.00;13.00;;;;;;;;4817195;29;28529;-96
2023/06/24 03:08:44;;;;;;;;;12.33;12.33;;;;;;;;4802702;29;28499;-96
2023/06/24 03:11:12;;;;;;;;;11.00;11.00;;;;;;;;4804474;29;28516;-96
2023/06/24 03:13:37;;;;;;;;;13.67;12.67;;;;;;;;4800939;29;29487;-95
2023/06/24 03:16:02;;;;;;;;;11.33;11.33;;;;;;;;4802638;29;28453;-96
2023/06/24 03:18:28;;;;;;;;;13.00;11.67;;;;;;;;4817728;29;29623;-96
2023/06/24 03:20:53;;;;;;;;;10.00;10.00;;;;;;;;4802856;29;28292;-96
2023/06/24 03:23:18;;;;;;;;;14.00;14.00;;;;;;;;4804513;29;30077;-95
2023/06/24 03:25:43;;;;;;;;;13.00;13.00;;;;;;;;4817747;29;28518;-96
2023/06/24 03:28:09;;;;;;;;;11.00;9.00;;;;;;;;4801056;29;28517;-94
2023/06/24 03:30:34;;;;;;;;;11.00;11.00;;;;;;;;4801076;29;29241;-96
2023/06/24 03:33:00;;;;;;;;;17.00;17.00;;;;;;;;4819800;29;29260;-96
2023/06/24 03:35:25;;;;;;;;;14.00;13.00;;;;;;;;4802605;29;28606;-96
2023/06/24 03:37:53;;;;;;;;;13.33;13.33;;;;;;;;4815233;29;28213;-96
2023/06/24 03:40:18;;;;;;;;;14.33;14.33;;;;;;;;4814645;29;28510;-96
2023/06/24 03:42:43;;;;;;;;;13.67;12.33;;;;;;;;4802162;29;30162;-96
2023/06/24 03:45:08;;;;;;;;;14.00;13.00;;;;;;;;4799574;29;28499;-96
2023/06/24 03:47:34;;;;;;;;;11.00;11.00;;;;;;;;4801214;29;28760;-96
2023/06/24 03:49:59;;;;;;;;;11.00;11.00;;;;;;;;4816779;29;28312;-96
2023/06/24 03:52:25;;;;;;;;;14.67;14.67;;;;;;;;4798026;29;29882;-96
2023/06/24 03:54:50;;;;;;;;;12.00;11.67;;;;;;;;4817965;29;28576;-96
2023/06/24 03:57:16;;;;;;;;;10.67;10.67;;;;;;;;4819150;29;28506;-96
2023/06/24 03:59:41;;;;;;;;;8.67;8.67;;;;;;;;4801546;29;28351;-96
2023/06/24 04:02:09;;;;;;;;;12.00;12.00;;;;;;;;4800051;29;29810;-95
2023/06/24 04:04:35;;;;;;;;;8.67;8.67;;;;;;;;4799829;29;28606;-96
2023/06/24 04:07:00;;;;;;;;;12.00;12.00;;;;;;;;4819598;29;28456;-96
2023/06/24 04:09:26;;;;;;;;;9.33;9.00;;;;;;;;4797644;29;28804;-96
2023/06/24 04:11:51;;;;;;;;;12.00;12.00;;;;;;;;4800670;29;28633;-96
2023/06/24 04:14:16;;;;;;;;;13.00;13.00;;;;;;;;4817282;29;28619;-95
2023/06/24 04:16:42;;;;;;;;;8.67;8.67;;;;;;;;4815871;29;28589;-96
2023/06/24 04:19:07;;;;;;;;;10.33;10.33;;;;;;;;4799517;29;28530;-95
2023/06/24 04:21:32;;;;;;;;;10.67;10.67;;;;;;;;4819882;29;29179;-96
2023/06/24 04:23:58;;;;;;;;;13.67;13.33;;;;;;;;4800236;29;28704;-96
2023/06/24 04:26:23;;;;;;;;;11.33;11.33;;;;;;;;4800775;29;28753;-95
2023/06/24 04:28:48;;;;;;;;;9.00;9.00;;;;;;;;4803379;29;30517;-96
2023/06/24 04:31:16;;;;;;;;;8.67;8.67;;;;;;;;4818949;29;28535;-96
2023/06/24 04:33:41;;;;;;;;;13.00;12.00;;;;;;;;4815874;29;28498;-95
2023/06/24 04:36:07;;;;;;;;;13.00;13.00;;;;;;;;4813494;29;28536;-96
2023/06/24 04:38:32;;;;;;;;;10.33;10.33;;;;;;;;4818232;29;28427;-95
2023/06/24 04:40:59;;;;;;;;;9.33;9.33;;;;;;;;4816720;29;28691;-95
2023/06/24 04:43:24;;;;;;;;;7.67;7.67;;;;;;;;4798199;29;28356;-96
2023/06/24 04:45:49;;;;;;;;;9.67;9.67;;;;;;;;4815353;29;28383;-96
2023/06/24 04:48:14;;;;;;;;;10.00;10.00;;;;;;;;4816859;29;28338;-95
2023/06/24 04:50:40;;;;;;;;;12.00;12.00;;;;;;;;4800110;29;29619;-95
2023/06/24 04:53:05;;;;;;;;;10.33;10.33;;;;;;;;4799159;29;28558;-96
2023/06/24 04:55:31;;;;;;;;;9.67;9.67;;;;;;;;4816813;29;28399;-95
2023/06/24 04:57:56;;;;;;;;;11.00;9.67;;;;;;;;4800157;29;28247;-96
2023/06/24 05:00:24;;;;;;;;;9.67;9.67;;;;;;;;4819038;29;28429;-95
2023/06/24 05:02:52;;;;;;;;;12.67;12.67;;;;;;;;4817433;29;28532;-95
2023/06/24 05:05:17;;;;;;;;;9.33;9.33;;;;;;;;4800768;29;28589;-96
2023/06/24 05:07:43;;;;;;;;;8.33;8.33;;;;;;;;4814830;29;28415;-96
2023/06/24 05:10:08;;;;;;;;;11.67;11.00;;;;;;;;4797256;29;30531;-96
2023/06/24 05:12:33;;;;;;;;;9.67;9.67;;;;;;;;4798165;29;28455;-96
2023/06/24 05:14:59;;;;;;;;;10.00;10.00;;;;;;;;4814560;29;28646;-96
2023/06/24 05:17:24;;;;;;;;;11.33;11.33;;;;;;;;4816438;29;28261;-96
2023/06/24 05:19:49;;;;;;;;;9.00;9.00;;;;;;;;4820037;29;29217;-96
2023/06/24 05:22:14;;;;;;;;;11.00;11.00;;;;;;;;4799556;29;29651;-96
2023/06/24 05:24:41;;;;;;;;;9.00;9.00;;;;;;;;4802325;29;28250;-96
2023/06/24 05:27:09;;;;;;;;;6.67;6.67;;;;;;;;4819191;29;28635;-96
2023/06/24 05:29:34;;;;;;;;;8.67;8.67;;;;;;;;4816581;29;28557;-96
2023/06/24 05:32:03;;;;;;;;;8.67;8.67;;;;;;;;4801797;29;29108;-96
2023/06/24 05:34:29;;;;;;;;;9.33;9.33;;;;;;;;4814586;29;28496;-96
2023/06/24 05:36:54;;;;;;;;;12.33;12.33;;;;;;;;4814582;29;28403;-96
2023/06/24 05:39:20;;;;;;;;;12.33;11.33;;;;;;;;4815801;29;29214;-96
2023/06/24 05:41:45;;;;;;;;;11.00;11.00;;;;;;;;4815537;29;28883;-96
2023/06/24 05:44:10;;;;;;;;;10.67;10.67;;;;;;;;4814270;29;28485;-96
2023/06/24 05:46:36;;;;;;;;;8.33;8.33;;;;;;;;4818063;29;28245;-96
2023/06/24 05:49:01;;;;;;;;;10.67;9.33;;;;;;;;4817081;29;28622;-96
2023/06/24 05:51:27;;;;;;;;;11.00;11.00;;;;;;;;4814429;29;28807;-96
2023/06/24 05:53:52;;;;;;;;;9.00;8.00;;;;;;;;4816202;29;28423;-96
2023/06/24 05:56:18;;;;;;;;;7.67;7.67;;;;;;;;4817492;29;28525;-96
2023/06/24 05:58:45;;;;;;;;;5.67;5.67;;;;;;;;4814365;29;29707;-96
2023/06/24 06:01:10;;;;;;;;;8.67;8.67;;;;;;;;4798128;29;29550;-96
2023/06/24 06:03:36;;;;;;;;;11.00;11.00;;;;;;;;4801731;29;28573;-96
2023/06/24 06:06:01;;;;;;;;;8.00;8.00;;;;;;;;4798890;29;28609;-96
2023/06/24 06:08:27;;;;;;;;;7.33;7.33;;;;;;;;4814157;29;28280;-96
2023/06/24 06:10:52;;;;;;;;;9.33;9.33;;;;;;;;4802952;29;28884;-96
2023/06/24 06:13:17;;;;;;;;;8.33;8.33;;;;;;;;4824242;29;28329;-96
2023/06/24 06:15:48;;;;;;;;;5.67;5.00;;;;;;;;4803355;29;28464;-96
2023/06/24 06:18:13;;;;;;;;;7.00;7.00;;;;;;;;4821289;29;29140;-96
2023/06/24 06:20:41;;;;;;;;;8.33;8.33;;;;;;;;4823867;29;28601;-96
2023/06/24 06:23:09;;;;;;;;;9.00;9.00;;;;;;;;4806197;29;28670;-96
2023/06/24 06:25:38;;;;;;;;;10.67;10.67;;;;;;;;4809420;29;28728;-96
2023/06/24 06:28:03;;;;;;;;;9.33;9.33;;;;;;;;4806021;29;29873;-96
2023/06/24 06:30:38;;;;;;;;;8.67;8.67;;;;;;;;4805677;29;28621;-96
2023/06/24 06:33:08;;;;;;;;;8.67;8.67;;;;;;;;4824184;29;28525;-96
2023/06/24 06:35:34;;;;;;;;;6.67;6.67;;;;;;;;4821623;29;28344;-96
2023/06/24 06:37:59;;;;;;;;;6.33;6.33;;;;;;;;4809131;29;29800;-96
2023/06/24 06:40:28;;;;;;;;;7.00;7.00;;;;;;;;4812931;29;28482;-96
2023/06/24 06:42:57;;;;;;;;;3.67;3.67;;;;;;;;4806552;29;28537;-96
2023/06/24 06:46:04;;;;;;;;;4.33;4.33;;;;;;;;4828088;29;28552;-96
2023/06/24 06:48:39;;;;;;;;;6.00;6.00;;;;;;;;4828774;29;28345;-96
2023/06/24 06:51:07;;;;;;;;;6.00;6.00;;;;;;;;4823923;29;28355;-96
2023/06/24 06:53:32;;;;;;;;;4.67;4.67;;;;;;;;4831993;29;28755;-96
2023/06/24 06:55:58;;;;;;;;;5.00;5.00;;;;;;;;4832854;29;28431;-96
2023/06/24 06:58:23;;;;;;;;;4.67;4.67;;;;;;;;4807436;29;30929;-96
2023/06/24 07:00:49;;;;;;;;;4.33;4.00;;;;;;;;4823815;29;28567;-96
2023/06/24 07:03:30;;;;;;;;;;;;;;;;;;;;;
2023/06/24 08:47:31;;;;;;;;;2.33;2.33;;;;;;;;5792616;24;29082;-95
2023/06/24 09:00:16;;;;;;;;;2.67;2.67;;;;;;;;5544663;24;28444;-80
2023/06/24 09:02:42;;;;;;;;;2.00;2.00;;;;;;;;4809834;29;28378;-80
2023/06/24 09:05:08;;;;;;;;;2.00;2.00;;;;;;;;4821843;29;29599;-80
2023/06/24 09:07:33;;;;;;;;;1.00;1.00;;;;;;;;4818415;29;28718;-80
2023/06/24 09:10:00;;;;;;;;;0.00;0.00;;;;;;;;4821104;29;29266;-80
2023/06/24 09:12:26;;;;;;;;;0.33;0.33;;;;;;;;4814367;29;28271;-80
2023/06/24 09:14:51;;;;;;;;;2.00;2.00;;;;;;;;4787386;29;28265;-80
2023/06/24 09:17:17;;;;;;;;;2.00;2.00;;;;;;;;4807474;29;28620;-80
2023/06/24 09:19:42;;;;;;;;;1.00;1.00;;;;;;;;4793750;29;30724;-80
2023/06/24 09:22:08;;;;;;;;;1.00;1.00;;;;;;;;4791422;29;28615;-80
2023/06/24 09:24:34;;;;;;;;;3.00;3.00;;;;;;;;4807120;29;29269;-80
2023/06/24 09:27:00;;;;;;;;;2.00;2.00;;;;;;;;4794270;29;28934;-80
2023/06/24 09:29:31;;;;;;;;;2.00;2.00;;;;;;;;4811814;29;28476;-80
2023/06/24 09:31:58;;;;;;;;;2.00;2.00;;;;;;;;4806383;29;28438;-80
2023/06/24 09:34:23;;;;;;;;;2.00;2.00;;;;;;;;4788650;29;29891;-80
2023/06/24 09:36:52;;;;;;;;;2.00;2.00;;;;;;;;4813948;29;28783;-80
2023/06/24 09:39:18;;;;;;;;;1.67;1.67;;;;;;;;4807650;29;28614;-80
2023/06/24 09:41:43;;;;;;;;;1.33;1.33;;;;;;;;4798487;29;28540;-80
2023/06/24 09:44:10;;;;;;;;;1.33;1.33;;;;;;;;4801536;29;28305;-80
2023/06/24 09:46:37;;;;;;;;;1.33;1.33;;;;;;;;4802425;29;28611;-80
2023/06/24 09:49:02;;;;;;;;;1.33;1.33;;;;;;;;4806461;29;28506;-80
2023/06/24 09:51:27;;;;;;;;;1.00;1.00;;;;;;;;4812899;29;28386;-83
2023/06/24 09:53:54;;;;;;;;;1.33;1.33;;;;;;;;4803605;29;28516;-80
2023/06/24 09:56:20;;;;;;;;;2.00;2.00;;;;;;;;4803979;29;28343;-80
2023/06/24 09:58:46;;;;;;;;;2.00;2.00;;;;;;;;4804665;29;29139;-80
2023/06/24 10:01:12;;;;;;;;;2.00;2.00;;;;;;;;4789489;29;29275;-80
2023/06/24 10:03:38;;;;;;;;;1.67;1.67;;;;;;;;4805075;29;28367;-80
2023/06/24 10:06:04;;;;;;;;;1.00;1.00;;;;;;;;4803614;29;28534;-80
2023/06/24 10:08:30;;;;;;;;;1.00;1.00;;;;;;;;4805089;29;29484;-80
2023/06/24 10:10:55;;;;;;;;;1.00;1.00;;;;;;;;4805564;29;28265;-80
2023/06/24 10:13:21;;;;;;;;;1.00;1.00;;;;;;;;4808264;29;28306;-80
2023/06/24 10:15:46;;;;;;;;;1.67;1.67;;;;;;;;4806980;29;28319;-80
2023/06/24 10:18:30;;;;;;;;;1.67;1.67;;;;;;;;4806942;29;28331;-80
2023/06/24 10:20:55;;;;;;;;;0.67;0.67;;;;;;;;4805950;29;28341;-80
2023/06/24 10:23:20;;;;;;;;;1.00;1.00;;;;;;;;4808105;29;28602;-80
2023/06/24 10:25:47;;;;;;;;;0.00;0.00;;;;;;;;4806896;29;28319;-81
2023/06/24 10:28:12;;;;;;;;;1.00;1.00;;;;;;;;4790582;29;31496;-80
2023/06/24 10:30:38;;;;;;;;;1.00;1.00;;;;;;;;4806585;29;28234;-80
2023/06/24 10:33:03;;;;;;;;;0.00;0.00;;;;;;;;4803223;29;28292;-80
2023/06/24 10:35:32;;;;;;;;;0.00;0.00;;;;;;;;4791014;29;28472;-80
2023/06/24 10:37:58;;;;;;;;;1.00;1.00;;;;;;;;4806677;29;28801;-80
2023/06/24 10:40:36;;;;;;;;;1.00;1.00;;;;;;;;4806453;29;28473;-80
2023/06/24 10:43:02;;;;;;;;;1.00;1.00;;;;;;;;4805499;29;28345;-81
2023/06/24 10:45:27;;;;;;;;;1.00;1.00;;;;;;;;4791308;29;28546;-80
2023/06/24 10:48:00;;;;;;;;;0.00;0.00;;;;;;;;4806677;29;28559;-80
2023/06/24 10:50:25;;;;;;;;;1.00;1.00;;;;;;;;4806623;29;28336;-80
2023/06/24 10:52:55;;;;;;;;;1.00;1.00;;;;;;;;4800511;29;28472;-80
2023/06/24 10:55:22;;;;;;;;;1.00;1.00;;;;;;;;4791334;29;28394;-80
2023/06/24 10:57:47;;;;;;;;;1.00;1.00;;;;;;;;4801991;29;28426;-80
2023/06/24 11:00:13;;;;;;;;;1.00;1.00;;;;;;;;4788352;29;28430;-81
2023/06/24 11:02:39;;;;;;;;;1.00;1.00;;;;;;;;4803322;29;28646;-80
2023/06/24 11:05:04;;;;;;;;;1.00;1.00;;;;;;;;4801213;29;28284;-80
2023/06/24 11:07:31;;;;;;;;;1.00;1.00;;;;;;;;4803292;29;29311;-80
2023/06/24 11:09:57;;;;;;;;;1.33;1.33;;;;;;;;4800927;29;28274;-80
2023/06/24 11:12:26;;;;;;;;;1.00;1.00;;;;;;;;4796323;29;28324;-80
2023/06/24 11:14:51;;;;;;;;;0.33;0.33;;;;;;;;4786687;29;28480;-84
2023/06/24 11:17:19;;;;;;;;;0.33;0.33;;;;;;;;4813954;29;28596;-80
2023/06/24 11:19:44;;;;;;;;;1.00;1.00;;;;;;;;4811639;29;28305;-80
2023/06/24 11:22:09;;;;;;;;;1.67;1.67;;;;;;;;4817962;29;28471;-80
2023/06/24 11:24:35;;;;;;;;;0.67;0.67;;;;;;;;4804756;29;28342;-81
2023/06/24 11:27:01;;;;;;;;;1.00;1.00;;;;;;;;4807865;29;28421;-81
2023/06/24 11:29:30;;;;;;;;;1.00;1.00;;;;;;;;4808928;29;29980;-80
2023/06/24 11:31:55;;;;;;;;;0.00;0.00;;;;;;;;4812835;29;28460;-81
2023/06/24 11:34:21;;;;;;;;;0.00;0.00;;;;;;;;4812644;29;28524;-80
2023/06/24 11:36:47;;;;;;;;;0.00;0.00;;;;;;;;4810016;29;28419;-81
2023/06/24 11:39:23;;;;;;;;;1.00;1.00;;;;;;;;4810148;29;28431;-81
2023/06/24 11:41:48;;;;;;;;;0.67;0.67;;;;;;;;4794015;29;28328;-81
2023/06/24 11:44:14;;;;;;;;;0.33;0.33;;;;;;;;4792931;29;28388;-81
2023/06/24 11:46:40;;;;;;;;;0.75;0.75;;;;;;;;4810760;29;28429;-81
2023/06/24 11:49:05;;;;;;;;;1.00;1.00;;;;;;;;4808896;29;28382;-80
2023/06/24 11:51:31;;;;;;;;;1.00;1.00;;;;;;;;4809902;29;28727;-85
2023/06/24 11:53:59;;;;;;;;;1.00;1.00;;;;;;;;4793642;29;28300;-80
2023/06/24 11:56:34;;;;;;;;;0.00;0.00;;;;;;;;4793520;29;29779;-85
2023/06/24 11:58:59;;;;;;;;;0.00;0.00;;;;;;;;4786243;29;28451;-80
2023/06/24 12:01:30;;;;;;;;;0.00;0.00;;;;;;;;4806171;29;28527;-81
2023/06/24 12:03:55;;;;;;;;;0.50;0.50;;;;;;;;4817643;29;28546;-81
2023/06/24 12:06:20;;;;;;;;;0.33;0.33;;;;;;;;4799267;29;29834;-81
2023/06/24 12:08:46;;;;;;;;;1.00;1.00;;;;;;;;4796307;29;28864;-81
2023/06/24 12:11:11;;;;;;;;;1.00;1.00;;;;;;;;4817662;29;28541;-81
2023/06/24 12:13:36;;;;;;;;;0.67;0.67;;;;;;;;4819462;29;28893;-81
2023/06/24 12:16:01;;;;;;;;;1.00;1.00;;;;;;;;4814076;29;28543;-80
2023/06/24 12:18:27;;;;;;;;;1.00;1.00;;;;;;;;4807952;29;28472;-80
2023/06/24 12:20:52;;;;;;;;;0.00;0.00;;;;;;;;4819479;29;28296;-80
2023/06/24 12:23:17;;;;;;;;;0.33;0.33;;;;;;;;4813235;29;28253;-80
2023/06/24 12:25:43;;;;;;;;;1.00;1.00;;;;;;;;4806929;29;28513;-80
2023/06/24 12:28:08;;;;;;;;;1.00;1.00;;;;;;;;4808789;29;28379;-81
2023/06/24 12:30:33;;;;;;;;;0.00;0.00;;;;;;;;4817800;29;28240;-80
2023/06/24 12:32:58;;;;;;;;;0.33;0.33;;;;;;;;4809728;29;28291;-84
2023/06/24 12:35:27;;;;;;;;;0.67;0.67;;;;;;;;4808639;29;30233;-81
2023/06/24 12:37:52;;;;;;;;;0.33;0.33;;;;;;;;4809706;29;28530;-83
2023/06/24 12:40:33;;;;;;;;;0.33;0.33;;;;;;;;5114597;27;28581;-83
2023/06/24 12:42:59;;;;;;;;;1.00;1.00;;;;;;;;5114760;27;28436;-82
2023/06/24 12:45:25;;;;;;;;;1.00;1.00;;;;;;;;5114325;27;28503;-82
2023/06/24 12:47:50;;;;;;;;;1.00;1.00;;;;;;;;5115021;27;28495;-82
2023/06/24 12:50:15;;;;;;;;;0.00;0.00;;;;;;;;5113254;27;28281;-82
2023/06/24 12:52:41;;;;;;;;;1.00;1.00;;;;;;;;5114894;27;28318;-82
2023/06/24 12:55:06;;;;;;;;;2.00;2.00;;;;;;;;5114684;27;28222;-82
2023/06/24 12:57:31;;;;;;;;;0.00;0.00;;;;;;;;5114799;27;28210;-82
2023/06/24 12:59:56;;;;;;;;;0.67;0.67;;;;;;;;5114210;27;28361;-82
2023/06/24 13:02:22;;;;;;;;;1.00;1.00;;;;;;;;5114724;27;28351;-82
2023/06/24 13:04:47;;;;;;;;;1.00;1.00;;;;;;;;5114703;27;28519;-82
2023/06/24 13:07:12;;;;;;;;;0.67;0.67;;;;;;;;5114664;27;28304;-82
2023/06/24 13:09:37;;;;;;;;;0.00;0.00;;;;;;;;5114209;27;28412;-82
2023/06/24 13:12:03;;;;;;;;;0.67;0.67;;;;;;;;5114715;27;28284;-82
2023/06/24 13:14:29;;;;;;;;;1.00;1.00;;;;;;;;5114041;27;28301;-82
2023/06/24 13:16:55;;;;;;;;;1.00;1.00;;;;;;;;5114590;27;28320;-82
2023/06/24 13:19:20;;;;;;;;;0.00;0.00;;;;;;;;5114023;27;28514;-82
2023/06/24 13:21:45;;;;;;;;;1.00;1.00;;;;;;;;5114228;27;28313;-82
2023/06/24 13:24:12;;;;;;;;;1.00;1.00;;;;;;;;5113002;27;28508;-82
2023/06/24 13:26:37;;;;;;;;;1.00;1.00;;;;;;;;5114466;27;28443;-82
2023/06/24 13:29:02;;;;;;;;;1.33;1.33;;;;;;;;5113592;27;28474;-82
2023/06/24 13:31:28;;;;;;;;;0.00;0.00;;;;;;;;5114268;27;28477;-82
2023/06/24 13:33:53;;;;;;;;;1.00;1.00;;;;;;;;5114175;27;28391;-82
2023/06/24 13:36:33;;;;;;;;;1.00;1.00;;;;;;;;5114232;27;28404;-82
2023/06/24 13:38:58;;;;;;;;;1.33;1.33;;;;;;;;5111992;27;29294;-82
2023/06/24 13:41:24;;;;;;;;;1.00;1.00;;;;;;;;5113715;27;28357;-82
2023/06/24 13:43:50;;;;;;;;;1.00;1.00;;;;;;;;5113956;27;28275;-82
2023/06/24 13:46:15;;;;;;;;;1.00;1.00;;;;;;;;5113666;27;28494;-82
2023/06/24 13:48:41;;;;;;;;;1.00;1.00;;;;;;;;5114034;27;28329;-82
2023/06/24 13:51:06;;;;;;;;;1.00;1.00;;;;;;;;5104639;27;28309;-82
2023/06/24 13:53:31;;;;;;;;;0.00;0.00;;;;;;;;5098895;28;28637;-82
2023/06/24 13:55:57;;;;;;;;;1.00;1.00;;;;;;;;5099956;27;28346;-82
2023/06/24 13:58:22;;;;;;;;;1.00;1.00;;;;;;;;5099734;27;28508;-82
2023/06/24 14:00:47;;;;;;;;;0.67;0.67;;;;;;;;5099623;27;28416;-82
2023/06/24 14:03:12;;;;;;;;;1.00;1.00;;;;;;;;5100076;27;28632;-82
2023/06/24 14:05:38;;;;;;;;;1.00;1.00;;;;;;;;5100085;27;28557;-82
2023/06/24 14:08:03;;;;;;;;;0.33;0.33;;;;;;;;5099856;27;28450;-82
2023/06/24 14:10:29;;;;;;;;;2.00;2.00;;;;;;;;5099566;27;28452;-82
2023/06/24 14:12:54;;;;;;;;;2.00;2.00;;;;;;;;5099922;27;28407;-82
2023/06/24 14:15:19;;;;;;;;;1.00;1.00;;;;;;;;5099498;27;28309;-82
2023/06/24 14:17:44;;;;;;;;;1.00;1.00;;;;;;;;5099625;27;28511;-82
2023/06/24 14:20:10;;;;;;;;;1.00;1.00;;;;;;;;5098235;28;28637;-82
2023/06/24 14:22:35;;;;;;;;;2.33;2.33;;;;;;;;5099755;27;28312;-81
2023/06/24 14:25:00;;;;;;;;;1.00;1.00;;;;;;;;5098304;28;28584;-82
2023/06/24 14:27:26;;;;;;;;;1.00;1.00;;;;;;;;5099504;27;28260;-82
2023/06/24 14:29:51;;;;;;;;;1.00;1.00;;;;;;;;5097846;28;28291;-82
2023/06/24 14:32:16;;;;;;;;;1.00;1.00;;;;;;;;5099626;27;28343;-82
2023/06/24 14:34:41;;;;;;;;;1.00;1.00;;;;;;;;5099638;27;28244;-82
2023/06/24 14:37:07;;;;;;;;;2.00;2.00;;;;;;;;5099426;27;28420;-82
2023/06/24 14:39:32;;;;;;;;;1.00;1.00;;;;;;;;5097496;27;28396;-82
2023/06/24 14:41:57;;;;;;;;;1.00;1.00;;;;;;;;5099445;28;28254;-82
2023/06/24 14:44:22;;;;;;;;;1.00;1.00;;;;;;;;5099290;27;28231;-82
2023/06/24 14:46:47;;;;;;;;;0.00;0.00;;;;;;;;5099335;28;28313;-81
2023/06/24 14:49:13;;;;;;;;;1.00;1.00;;;;;;;;5099172;27;28565;-82
2023/06/24 14:51:38;;;;;;;;;1.00;1.00;;;;;;;;5099343;27;28386;-82
2023/06/24 14:54:03;;;;;;;;;2.00;2.00;;;;;;;;5099076;27;28562;-82
2023/06/24 14:56:28;;;;;;;;;2.00;2.00;;;;;;;;5099325;27;28265;-81
2023/06/24 14:58:54;;;;;;;;;2.00;2.00;;;;;;;;5097206;28;29406;-82
2023/06/24 15:01:19;;;;;;;;;1.00;1.00;;;;;;;;5099264;27;28461;-81
2023/06/24 15:03:44;;;;;;;;;2.00;2.00;;;;;;;;5096830;28;28586;-82
2023/06/24 15:06:09;;;;;;;;;1.00;1.00;;;;;;;;5099145;27;29509;-82
2023/06/24 15:08:34;;;;;;;;;2.00;2.00;;;;;;;;5098790;27;28333;-82
2023/06/24 15:11:00;;;;;;;;;1.00;1.00;;;;;;;;5098980;27;28261;-81
2023/06/24 15:13:25;;;;;;;;;1.00;1.00;;;;;;;;5099057;27;28218;-82
2023/06/24 15:15:51;;;;;;;;;1.00;1.00;;;;;;;;5098661;27;28422;-81
2023/06/24 15:18:17;;;;;;;;;1.00;1.00;;;;;;;;5098661;27;28308;-82
2023/06/24 15:20:42;;;;;;;;;2.00;2.00;;;;;;;;5098807;27;28337;-82
2023/06/24 15:23:07;;;;;;;;;1.00;1.00;;;;;;;;5097406;28;28400;-82
2023/06/24 15:25:33;;;;;;;;;1.00;1.00;;;;;;;;5097186;28;30751;-82
2023/06/24 15:27:58;;;;;;;;;1.00;1.00;;;;;;;;5097203;28;28528;-82
2023/06/24 15:30:26;;;;;;;;;0.33;0.33;;;;;;;;5096994;27;28367;-82
2023/06/24 15:32:51;;;;;;;;;1.00;1.00;;;;;;;;5097321;28;28288;-82
2023/06/24 15:35:16;;;;;;;;;1.00;1.00;;;;;;;;5098613;27;28219;-82
2023/06/24 15:37:42;;;;;;;;;2.00;2.00;;;;;;;;5098335;28;28305;-82
2023/06/24 15:40:07;;;;;;;;;1.00;1.00;;;;;;;;5098011;27;28272;-82
2023/06/24 15:42:32;;;;;;;;;2.00;2.00;;;;;;;;5098371;28;28284;-82
2023/06/24 15:44:58;;;;;;;;;1.00;1.00;;;;;;;;5096677;28;30002;-82
2023/06/24 15:47:23;;;;;;;;;1.00;1.00;;;;;;;;5096887;28;28505;-82
2023/06/24 15:49:48;;;;;;;;;1.00;1.00;;;;;;;;5098591;28;28271;-82
2023/06/24 15:52:13;;;;;;;;;1.00;1.00;;;;;;;;5098462;27;28225;-82
2023/06/24 15:54:38;;;;;;;;;1.67;1.67;;;;;;;;5098105;28;28298;-82
2023/06/24 15:57:04;;;;;;;;;1.00;1.00;;;;;;;;5098200;28;28302;-82
2023/06/24 15:59:29;;;;;;;;;1.00;1.00;;;;;;;;5097712;27;28312;-82
2023/06/24 16:01:54;;;;;;;;;1.67;1.67;;;;;;;;5098329;27;28288;-82
2023/06/24 16:04:19;;;;;;;;;1.00;1.00;;;;;;;;5096641;28;28416;-82
2023/06/24 16:06:45;;;;;;;;;1.00;1.00;;;;;;;;5098061;27;28356;-82
2023/06/24 16:09:10;;;;;;;;;1.33;1.33;;;;;;;;5096435;28;28342;-82
2023/06/24 16:11:35;;;;;;;;;0.00;0.00;;;;;;;;5098195;27;28470;-82
2023/06/24 16:14:00;;;;;;;;;1.00;1.00;;;;;;;;5097103;28;29428;-82
2023/06/24 16:16:26;;;;;;;;;2.00;2.00;;;;;;;;5097875;27;28349;-82
2023/06/24 16:18:51;;;;;;;;;1.00;1.00;;;;;;;;5097641;27;29364;-82
2023/06/24 16:21:16;;;;;;;;;2.00;2.00;;;;;;;;5098106;27;28416;-82
2023/06/24 16:23:41;;;;;;;;;1.00;1.00;;;;;;;;5097505;27;28422;-82
2023/06/24 16:26:06;;;;;;;;;1.00;1.00;;;;;;;;5096404;28;29449;-82
2023/06/24 16:28:32;;;;;;;;;2.00;2.00;;;;;;;;5097487;27;28456;-82